createdAt,value
2018-12-02T00:00:00.355Z,25.56
2018-12-02T00:01:00.125Z,25.59
2018-12-02T00:02:00.075Z,25.56
2018-12-02T00:03:00.087Z,25.52
2018-12-02T00:04:00.055Z,25.54
2018-12-02T00:05:00.126Z,25.52
2018-12-02T00:06:00.007Z,25.60
2018-12-02T00:06:59.965Z,25.52
2018-12-02T00:07:59.953Z,25.52
2018-12-02T00:09:00.120Z,25.56
2018-12-02T00:09:59.984Z,25.59
2018-12-02T00:10:59.866Z,25.48
2018-12-02T00:11:59.879Z,25.49
2018-12-02T00:12:59.820Z,25.60
2018-12-02T00:13:59.885Z,25.60
2018-12-02T00:14:59.829Z,25.49
2018-12-02T00:15:59.837Z,25.44
2018-12-02T00:16:59.728Z,25.57
2018-12-02T00:17:59.660Z,25.42
2018-12-02T00:18:59.696Z,25.42
2018-12-02T00:19:59.648Z,25.39
2018-12-02T00:20:59.726Z,25.44
2018-12-02T00:21:59.629Z,25.45
2018-12-02T00:22:59.576Z,25.41
2018-12-02T00:23:59.597Z,25.45
2018-12-02T00:24:59.721Z,25.42
2018-12-02T00:25:59.524Z,25.42
2018-12-02T00:26:59.971Z,25.33
2018-12-02T00:27:59.622Z,25.44
2018-12-02T00:28:59.471Z,25.41
2018-12-02T00:29:59.421Z,25.34
2018-12-02T00:30:59.371Z,25.38
2018-12-02T00:31:59.333Z,25.42
2018-12-02T00:32:59.422Z,25.42
2018-12-02T00:33:59.338Z,25.32
2018-12-02T00:34:59.268Z,25.44
2018-12-02T00:35:59.233Z,25.44
2018-12-02T00:36:59.243Z,25.41
2018-12-02T00:37:59.290Z,25.37
2018-12-02T00:38:59.186Z,25.33
2018-12-02T00:39:59.140Z,25.45
2018-12-02T00:40:59.105Z,25.45
2018-12-02T00:41:59.076Z,25.49
2018-12-02T00:42:59.164Z,25.44
2018-12-02T00:43:59.040Z,25.45
2018-12-02T00:44:59.023Z,25.42
2018-12-02T00:45:58.995Z,25.49
2018-12-02T00:46:58.998Z,25.39
2018-12-02T00:47:58.965Z,25.51
2018-12-02T00:48:59.027Z,25.47
2018-12-02T00:49:58.894Z,25.45
2018-12-02T00:50:58.867Z,25.44
2018-12-02T00:51:58.845Z,25.45
2018-12-02T00:52:58.813Z,25.44
2018-12-02T00:53:58.865Z,25.32
2018-12-02T00:54:58.868Z,25.39
2018-12-02T00:55:58.849Z,25.45
2018-12-02T00:56:58.704Z,25.32
2018-12-02T00:57:58.759Z,25.41
2018-12-02T00:58:58.845Z,25.38
2018-12-02T00:59:58.659Z,25.39
2018-12-02T01:00:58.619Z,25.42
2018-12-02T01:01:58.620Z,25.41
2018-12-02T01:02:58.577Z,25.45
2018-12-02T01:03:58.651Z,25.44
2018-12-02T01:04:58.590Z,25.42
2018-12-02T01:05:58.491Z,25.38
2018-12-02T01:06:58.461Z,25.42
2018-12-02T01:07:58.443Z,25.39
2018-12-02T01:08:58.453Z,25.38
2018-12-02T01:09:58.450Z,25.42
2018-12-02T01:10:58.449Z,25.42
2018-12-02T01:11:58.374Z,25.30
2018-12-02T01:12:58.319Z,25.34
2018-12-02T01:13:58.303Z,25.33
2018-12-02T01:14:58.344Z,25.39
2018-12-02T01:15:58.284Z,25.30
2018-12-02T01:16:58.225Z,25.33
2018-12-02T01:17:58.197Z,25.44
2018-12-02T01:18:58.137Z,25.37
2018-12-02T01:19:58.267Z,25.29
2018-12-02T01:20:58.104Z,25.42
2018-12-02T01:21:58.075Z,25.39
2018-12-02T01:22:58.139Z,25.30
2018-12-02T01:23:58.008Z,-40.00
2018-12-02T01:24:58.006Z,-40.00
2018-12-02T01:25:58.076Z,-40.00
2018-12-02T01:26:58.022Z,-40.00
2018-12-02T01:27:57.983Z,-40.00
2018-12-02T01:28:57.957Z,-40.00
2018-12-02T01:29:58.455Z,-40.00
2018-12-02T01:30:57.947Z,-40.00
2018-12-02T01:31:57.886Z,-40.00
2018-12-02T01:32:58.327Z,-40.00
2018-12-02T01:33:57.807Z,-40.00
2018-12-02T01:34:57.748Z,-40.00
2018-12-02T01:35:57.790Z,-40.00
2018-12-02T01:36:57.695Z,-40.00
2018-12-02T01:37:57.685Z,-40.00
2018-12-02T01:38:57.855Z,-40.00
2018-12-02T01:39:58.018Z,-40.00
2018-12-02T01:40:58.030Z,-40.00
2018-12-02T01:41:58.082Z,-40.00
2018-12-02T01:42:57.580Z,-40.00
2018-12-02T01:43:57.783Z,-40.00
2018-12-02T01:44:57.523Z,-40.00
2018-12-02T01:45:57.693Z,-40.00
2018-12-02T01:46:58.044Z,-40.00
2018-12-02T01:47:57.637Z,-40.00
2018-12-02T01:48:57.584Z,-40.00
2018-12-02T01:49:57.501Z,-40.00
2018-12-02T01:50:57.713Z,-40.00
2018-12-02T01:51:57.569Z,-40.00
2018-12-02T01:52:57.842Z,-40.00
2018-12-02T01:53:57.599Z,-40.00
2018-12-02T01:54:57.506Z,-40.00
2018-12-02T01:55:57.419Z,-40.00
2018-12-02T01:56:57.523Z,-40.00
2018-12-02T01:57:57.464Z,-40.00
2018-12-02T01:58:57.869Z,-40.00
2018-12-02T01:59:57.446Z,-40.00
2018-12-02T02:00:57.617Z,-40.00
2018-12-02T02:01:57.504Z,-40.00
2018-12-02T02:02:57.450Z,-40.00
2018-12-02T02:03:57.255Z,-40.00
2018-12-02T02:04:57.888Z,-40.00
2018-12-02T02:05:57.282Z,-40.00
2018-12-02T02:06:56.993Z,-40.00
2018-12-02T02:07:57.186Z,-40.00
2018-12-02T02:08:57.008Z,-40.00
2018-12-02T02:09:56.837Z,-40.00
2018-12-02T02:10:58.027Z,-40.00
2018-12-02T02:11:57.730Z,-40.00
2018-12-02T02:12:58.432Z,-40.00
2018-12-02T02:13:57.589Z,-40.00
2018-12-02T02:14:57.267Z,-40.00
2018-12-02T02:15:57.275Z,-40.00
2018-12-02T02:16:57.530Z,-40.00
2018-12-02T02:17:56.699Z,-40.00
2018-12-02T02:18:56.905Z,-40.00
2018-12-02T02:19:57.658Z,-40.00
2018-12-02T02:20:56.848Z,-40.00
2018-12-02T02:21:57.955Z,-40.00
2018-12-02T02:22:57.153Z,-40.00
2018-12-02T02:23:56.970Z,-40.00
2018-12-02T02:24:56.532Z,-40.00
2018-12-02T02:25:56.727Z,-40.00
2018-12-02T02:26:56.535Z,-40.00
2018-12-02T02:27:56.511Z,-40.00
2018-12-02T02:28:56.367Z,-40.00
2018-12-02T02:29:57.195Z,-40.00
2018-12-02T02:30:56.952Z,-40.00
2018-12-02T02:31:56.713Z,-40.00
2018-12-02T02:32:56.616Z,-40.00
2018-12-02T02:33:56.712Z,-40.00
2018-12-02T02:34:56.440Z,-40.00
2018-12-02T02:35:56.863Z,-40.00
2018-12-02T02:36:56.203Z,-40.00
2018-12-02T02:37:56.881Z,-40.00
2018-12-02T02:38:56.679Z,-40.00
2018-12-02T02:39:56.225Z,-40.00
2018-12-02T02:40:56.294Z,-40.00
2018-12-02T02:41:56.036Z,-40.00
2018-12-02T02:42:56.380Z,-40.00
2018-12-02T02:43:56.285Z,-40.00
2018-12-02T02:44:56.872Z,-40.00
2018-12-02T02:45:56.213Z,-40.00
2018-12-02T02:46:55.906Z,-40.00
2018-12-02T02:47:55.893Z,-40.00
2018-12-02T02:48:56.239Z,-40.00
2018-12-02T02:49:56.120Z,-40.00
2018-12-02T02:50:56.678Z,-40.00
2018-12-02T02:51:56.262Z,-40.00
2018-12-02T02:52:55.961Z,-40.00
2018-12-02T02:53:55.782Z,-40.00
2018-12-02T02:54:55.825Z,-40.00
2018-12-02T02:55:56.739Z,-40.00
2018-12-02T02:56:55.824Z,-40.00
2018-12-02T02:57:55.762Z,-40.00
2018-12-02T02:58:55.822Z,-40.00
2018-12-02T02:59:55.777Z,-40.00
2018-12-02T03:00:56.322Z,-40.00
2018-12-02T03:01:55.940Z,-40.00
2018-12-02T03:02:56.001Z,-40.00
2018-12-02T03:03:55.763Z,-40.00
2018-12-02T03:04:55.463Z,-40.00
2018-12-02T03:05:55.821Z,-40.00
2018-12-02T03:06:55.986Z,-40.00
2018-12-02T03:07:55.825Z,-40.00
2018-12-02T03:08:55.427Z,-40.00
2018-12-02T03:09:55.553Z,-40.00
2018-12-02T03:10:55.658Z,-40.00
2018-12-02T03:11:55.634Z,-40.00
2018-12-02T03:12:55.509Z,-40.00
2018-12-02T03:13:55.224Z,-40.00
2018-12-02T03:14:55.217Z,-40.00
2018-12-02T03:15:55.345Z,-40.00
2018-12-02T03:16:55.245Z,-40.00
2018-12-02T03:17:55.784Z,-40.00
2018-12-02T03:18:55.503Z,-40.00
2018-12-02T03:19:55.445Z,-40.00
2018-12-02T03:20:55.486Z,-40.00
2018-12-02T03:21:55.316Z,-40.00
2018-12-02T03:22:55.111Z,-40.00
2018-12-02T03:23:55.825Z,-40.00
2018-12-02T03:24:55.431Z,-40.00
2018-12-02T03:25:55.092Z,-40.00
2018-12-02T03:26:54.903Z,-40.00
2018-12-02T03:27:55.357Z,-40.00
2018-12-02T03:28:56.094Z,-40.00
2018-12-02T03:29:55.397Z,-40.00
2018-12-02T03:30:55.168Z,-40.00
2018-12-02T03:31:54.901Z,-40.00
2018-12-02T03:32:55.148Z,-40.00
2018-12-02T03:33:55.675Z,-40.00
2018-12-02T03:34:55.018Z,-40.00
2018-12-02T03:35:54.887Z,-40.00
2018-12-02T03:36:55.249Z,-40.00
2018-12-02T03:37:55.511Z,-40.00
2018-12-02T03:38:55.100Z,-40.00
2018-12-02T03:39:54.551Z,-40.00
2018-12-02T03:40:54.608Z,-40.00
2018-12-02T03:41:54.510Z,-40.00
2018-12-02T03:42:54.644Z,-40.00
2018-12-02T03:43:54.900Z,-40.00
2018-12-02T03:44:54.549Z,-40.00
2018-12-02T03:45:54.399Z,-40.00
2018-12-02T03:48:55.037Z,-40.00
2018-12-02T03:49:54.848Z,-40.00
2018-12-02T03:51:54.949Z,-40.00
2018-12-02T03:52:55.280Z,-40.00
2018-12-02T03:54:54.958Z,-40.00
2018-12-02T03:56:55.165Z,-40.00
2018-12-02T03:57:54.924Z,-40.00
2018-12-02T03:58:56.584Z,-40.00
2018-12-02T03:59:54.455Z,-40.00
2018-12-02T04:00:54.864Z,-40.00
2018-12-02T04:04:55.137Z,-40.00
2018-12-02T04:07:55.098Z,-40.00
2018-12-02T04:12:54.737Z,-40.00
2018-12-02T04:13:54.269Z,-40.00
2018-12-02T04:14:54.960Z,-40.00
2018-12-02T04:15:54.177Z,-40.00
2018-12-02T04:16:54.280Z,-40.00
2018-12-02T04:19:54.012Z,-40.00
2018-12-02T04:22:01.508Z,-40.00
2018-12-02T04:22:53.931Z,-40.00
2018-12-02T04:24:54.629Z,-40.00
2018-12-02T04:25:54.101Z,-40.00
2018-12-02T04:26:54.089Z,-40.00
2018-12-02T04:28:54.158Z,-40.00
2018-12-02T04:29:54.371Z,-40.00
2018-12-02T04:30:54.564Z,-40.00
2018-12-02T04:31:54.271Z,-40.00
2018-12-02T04:34:54.208Z,-40.00
2018-12-02T04:37:53.921Z,-40.00
2018-12-02T04:39:54.074Z,-40.00
2018-12-02T04:44:53.980Z,-40.00
2018-12-02T04:45:53.497Z,-40.00
2018-12-02T04:46:53.888Z,-40.00
2018-12-02T04:49:53.797Z,-40.00
2018-12-02T04:51:54.360Z,-40.00
2018-12-02T04:54:03.796Z,-40.00
2018-12-02T04:54:53.696Z,-40.00
2018-12-02T04:55:54.368Z,-40.00
2018-12-02T04:56:54.746Z,-40.00
2018-12-02T04:58:53.071Z,-40.00
2018-12-02T05:02:52.888Z,-40.00
2018-12-02T05:03:53.760Z,-40.00
2018-12-02T05:05:53.983Z,-40.00
2018-12-02T05:06:53.787Z,-40.00
2018-12-02T05:08:54.817Z,-40.00
2018-12-02T05:09:53.561Z,-40.00
2018-12-02T05:10:53.069Z,-40.00
2018-12-02T05:11:53.040Z,-40.00
2018-12-02T05:17:53.913Z,-40.00
2018-12-02T05:21:53.162Z,-40.00
2018-12-02T05:22:53.117Z,-40.00
2018-12-02T05:27:52.866Z,-40.00
2018-12-02T05:31:52.396Z,-40.00
2018-12-02T05:33:52.058Z,-40.00
2018-12-02T05:34:52.637Z,-40.00
2018-12-02T05:37:51.976Z,-40.00
2018-12-02T05:38:52.890Z,-40.00
2018-12-02T05:39:53.545Z,-40.00
2018-12-02T05:43:53.273Z,-40.00
2018-12-02T05:45:52.526Z,-40.00
2018-12-02T05:48:52.788Z,-40.00
2018-12-02T05:50:52.021Z,-40.00
2018-12-02T05:51:51.591Z,-40.00
2018-12-02T05:58:54.084Z,-40.00
2018-12-02T05:59:51.823Z,-40.00
2018-12-02T06:00:52.900Z,-40.00
2018-12-02T06:02:51.723Z,-40.00
2018-12-02T06:07:51.785Z,-40.00
2018-12-02T06:10:52.746Z,-40.00
2018-12-02T06:16:51.540Z,-40.00
2018-12-02T06:19:51.289Z,-40.00
2018-12-02T06:20:51.679Z,-40.00
2018-12-02T06:22:51.516Z,-40.00
2018-12-02T06:23:51.460Z,-40.00
2018-12-02T06:25:51.320Z,-40.00
2018-12-02T06:26:51.120Z,-40.00
2018-12-02T06:29:51.039Z,-40.00
2018-12-02T06:30:51.094Z,-40.00
2018-12-02T06:31:51.080Z,-40.00
2018-12-02T06:36:51.155Z,-40.00
2018-12-02T06:38:51.403Z,-40.00
2018-12-02T06:39:50.874Z,-40.00
2018-12-02T06:40:50.733Z,-40.00
2018-12-02T06:42:52.332Z,-40.00
2018-12-02T06:44:50.766Z,-40.00
2018-12-02T06:45:50.394Z,-40.00
2018-12-02T06:47:52.386Z,-40.00
